createdAt,value
2018-08-17T00:00:04.947Z,72.24
2018-08-17T00:01:04.873Z,72.05
2018-08-17T00:02:04.797Z,72.05
2018-08-17T00:03:04.709Z,72.14
2018-08-17T00:04:04.635Z,71.85
2018-08-17T00:05:04.560Z,72.05
2018-08-17T00:06:04.498Z,72.72
2018-08-17T00:07:04.398Z,72.72
2018-08-17T00:08:04.326Z,72.11
2018-08-17T00:09:04.248Z,72.59
2018-08-17T00:10:04.174Z,73.65
2018-08-17T00:11:04.097Z,73.65
2018-08-17T00:12:04.011Z,74.51
2018-08-17T00:13:03.937Z,73.16
2018-08-17T00:14:03.860Z,74.71
2018-08-17T00:15:03.785Z,73.07
2018-08-17T00:16:03.699Z,74.32
2018-08-17T00:17:03.625Z,74.32
2018-08-17T00:18:03.550Z,74.32
2018-08-17T00:19:03.477Z,74.80
2018-08-17T00:20:03.386Z,74.51
2018-08-17T00:21:03.312Z,75.92
2018-08-17T00:22:03.236Z,75.15
2018-08-17T00:23:03.162Z,75.05
2018-08-17T00:24:03.075Z,74.09
2018-08-17T00:25:03.001Z,74.96
2018-08-17T00:26:02.931Z,75.24
2018-08-17T00:27:02.850Z,75.15
2018-08-17T00:28:02.762Z,75.24
2018-08-17T00:29:02.700Z,76.59
2018-08-17T00:30:02.613Z,75.15
2018-08-17T00:31:02.540Z,76.01
2018-08-17T00:32:02.452Z,76.59
2018-08-17T00:33:02.377Z,76.50
2018-08-17T00:34:02.301Z,75.11
2018-08-17T00:35:02.225Z,76.50
2018-08-17T00:36:02.140Z,76.98
2018-08-17T00:37:02.063Z,76.94
2018-08-17T00:38:01.988Z,76.26
2018-08-17T00:39:01.913Z,77.36
2018-08-17T00:40:01.827Z,76.36
2018-08-17T00:41:01.752Z,77.61
2018-08-17T00:42:01.677Z,77.90
2018-08-17T00:43:01.602Z,77.90
2018-08-17T00:44:01.527Z,78.00
2018-08-17T00:45:01.439Z,78.38
2018-08-17T00:46:01.365Z,79.35
2018-08-17T00:47:01.289Z,79.05
2018-08-17T00:48:01.210Z,78.67
2018-08-17T00:49:01.127Z,78.19
2018-08-17T00:50:01.052Z,79.15
2018-08-17T00:51:00.966Z,78.96
2018-08-17T00:52:00.890Z,79.15
2018-08-17T00:53:00.818Z,78.38
2018-08-17T00:54:00.742Z,78.96
2018-08-17T00:55:00.656Z,79.92
2018-08-17T00:56:00.578Z,80.30
2018-08-17T00:57:00.503Z,80.88
2018-08-17T00:58:00.428Z,80.50
2018-08-17T00:59:00.340Z,80.50
2018-08-17T01:00:00.279Z,79.44
2018-08-17T01:01:00.192Z,79.92
2018-08-17T01:02:00.115Z,79.05
2018-08-17T01:03:00.029Z,79.05
2018-08-17T01:03:59.955Z,80.46
2018-08-17T01:04:59.879Z,80.40
2018-08-17T01:05:59.791Z,80.50
2018-08-17T01:06:59.719Z,80.30
2018-08-17T01:07:59.641Z,80.50
2018-08-17T01:08:59.567Z,80.50
2018-08-17T01:09:59.479Z,80.55
2018-08-17T01:10:59.404Z,80.27
2018-08-17T01:11:59.333Z,80.07
2018-08-17T01:12:59.243Z,80.27
2018-08-17T01:13:59.167Z,81.04
2018-08-17T01:14:59.106Z,80.27
2018-08-17T01:15:59.018Z,79.79
2018-08-17T01:16:58.930Z,80.17
2018-08-17T01:17:58.855Z,80.27
2018-08-17T01:18:58.781Z,81.04
2018-08-17T01:19:58.706Z,81.23
2018-08-17T01:20:58.618Z,80.65
2018-08-17T01:21:58.542Z,80.27
2018-08-17T01:22:58.469Z,80.46
2018-08-17T01:23:58.381Z,80.75
2018-08-17T01:24:58.306Z,80.27
2018-08-17T01:25:58.231Z,81.04
2018-08-17T01:26:58.144Z,81.13
2018-08-17T01:27:58.069Z,81.23
2018-08-17T01:28:58.010Z,81.61
2018-08-17T01:29:57.919Z,81.90
2018-08-17T01:30:57.835Z,79.79
2018-08-17T01:31:57.757Z,80.94
2018-08-17T01:32:57.682Z,81.04
2018-08-17T01:33:57.606Z,80.84
2018-08-17T01:34:57.519Z,80.94
2018-08-17T01:35:57.443Z,80.65
2018-08-17T01:36:57.357Z,81.13
2018-08-17T01:37:57.282Z,81.32
2018-08-17T01:38:57.209Z,80.17
2018-08-17T01:39:57.132Z,81.04
2018-08-17T01:40:57.058Z,81.99
2018-08-17T01:41:56.976Z,82.09
2018-08-17T01:42:56.896Z,80.84
2018-08-17T01:43:56.809Z,82.67
2018-08-17T01:44:56.734Z,81.99
2018-08-17T01:45:56.658Z,82.29
2018-08-17T01:46:56.573Z,81.71
2018-08-17T01:47:56.497Z,80.75
2018-08-17T01:48:56.420Z,81.71
2018-08-17T01:49:56.358Z,81.04
2018-08-17T01:50:56.259Z,80.46
2018-08-17T01:51:56.184Z,81.04
2018-08-17T01:52:56.109Z,80.65
2018-08-17T01:53:56.044Z,80.17
2018-08-17T01:54:55.947Z,80.17
2018-08-17T01:55:55.871Z,81.04
2018-08-17T01:56:55.784Z,80.17
2018-08-17T01:57:55.710Z,80.46
2018-08-17T01:58:55.634Z,78.92
2018-08-17T01:59:55.559Z,80.65
2018-08-17T02:00:55.472Z,79.30
2018-08-17T02:01:55.396Z,78.44
2018-08-17T02:02:55.324Z,80.02
2018-08-17T02:03:55.246Z,78.58
2018-08-17T02:04:55.160Z,78.19
2018-08-17T02:05:55.089Z,78.48
2018-08-17T02:06:54.997Z,78.28
2018-08-17T02:07:54.923Z,78.96
2018-08-17T02:08:54.848Z,80.11
2018-08-17T02:09:54.761Z,80.07
2018-08-17T02:10:54.686Z,79.79
2018-08-17T02:11:54.611Z,79.50
2018-08-17T02:12:54.538Z,79.02
2018-08-17T02:13:54.447Z,79.02
2018-08-17T02:14:54.374Z,79.60
2018-08-17T02:15:54.298Z,78.92
2018-08-17T02:16:54.212Z,80.07
2018-08-17T02:17:54.139Z,79.69
2018-08-17T02:18:54.066Z,79.11
2018-08-17T02:19:53.975Z,80.27
2018-08-17T02:20:53.898Z,80.46
2018-08-17T02:21:53.837Z,79.50
2018-08-17T02:22:53.748Z,79.50
2018-08-17T02:23:53.663Z,79.30
2018-08-17T02:24:53.588Z,78.25
2018-08-17T02:25:53.513Z,79.98
2018-08-17T02:26:53.424Z,80.65
2018-08-17T02:27:53.349Z,80.07
2018-08-17T02:28:53.275Z,80.36
2018-08-17T02:29:53.188Z,80.36
2018-08-17T02:30:53.117Z,81.23
2018-08-17T02:31:53.038Z,79.30
2018-08-17T02:32:52.963Z,79.79
2018-08-17T02:33:52.874Z,78.92
2018-08-17T02:34:52.801Z,78.63
2018-08-17T02:35:52.725Z,78.25
2018-08-17T02:36:52.641Z,78.92
2018-08-17T02:37:52.565Z,80.27
2018-08-17T02:38:52.489Z,79.79
2018-08-17T02:39:52.401Z,80.65
2018-08-17T02:40:52.331Z,79.69
2018-08-17T02:41:52.251Z,80.07
2018-08-17T02:42:52.165Z,79.40
2018-08-17T02:43:52.089Z,79.46
2018-08-17T02:44:52.015Z,80.51
2018-08-17T02:45:51.926Z,80.04
2018-08-17T02:46:51.851Z,80.51
2018-08-17T02:47:51.777Z,81.28
2018-08-17T02:48:51.691Z,80.04
2018-08-17T02:49:51.617Z,79.75
2018-08-17T02:50:51.547Z,79.07
2018-08-17T02:51:51.453Z,79.21
2018-08-17T02:52:51.377Z,78.63
2018-08-17T02:53:51.303Z,79.69
2018-08-17T02:54:51.227Z,80.17
2018-08-17T02:55:51.141Z,79.21
2018-08-17T02:56:51.067Z,79.21
2018-08-17T02:57:50.979Z,79.40
2018-08-17T02:58:50.902Z,80.27
2018-08-17T02:59:50.828Z,80.17
2018-08-17T03:00:50.752Z,80.42
2018-08-17T03:01:50.667Z,80.51
2018-08-17T03:02:50.591Z,79.07
2018-08-17T03:03:50.516Z,80.42
2018-08-17T03:04:50.444Z,79.55
2018-08-17T03:05:50.353Z,79.75
2018-08-17T03:06:50.279Z,79.75
2018-08-17T03:07:50.191Z,80.61
2018-08-17T03:08:50.117Z,79.40
2018-08-17T03:09:50.042Z,79.11
2018-08-17T03:10:49.954Z,78.92
2018-08-17T03:11:49.879Z,80.22
2018-08-17T03:12:49.804Z,78.92
2018-08-17T03:13:49.718Z,79.75
2018-08-17T03:14:49.643Z,79.07
2018-08-17T03:15:49.568Z,80.80
2018-08-17T03:16:49.480Z,80.71
2018-08-17T03:17:49.405Z,79.46
2018-08-17T03:18:49.331Z,81.09
2018-08-17T03:19:49.244Z,80.32
2018-08-17T03:20:49.169Z,80.22
2018-08-17T03:21:49.095Z,79.55
2018-08-17T03:22:49.007Z,79.36
2018-08-17T03:23:48.931Z,79.17
2018-08-17T03:24:48.855Z,79.94
2018-08-17T03:25:48.771Z,79.11
2018-08-17T03:26:48.699Z,79.94
2018-08-17T03:27:48.621Z,80.99
2018-08-17T03:28:48.535Z,80.22
2018-08-17T03:29:48.456Z,81.38
2018-08-17T03:30:48.395Z,79.84
2018-08-17T03:31:48.306Z,81.76
2018-08-17T03:32:48.222Z,80.32
2018-08-17T03:33:48.144Z,79.65
2018-08-17T03:34:48.058Z,79.36
2018-08-17T03:35:47.983Z,80.99
2018-08-17T03:36:47.907Z,79.75
2018-08-17T03:37:47.832Z,79.84
2018-08-17T03:38:47.745Z,80.71
2018-08-17T03:39:47.671Z,79.65
2018-08-17T03:40:47.583Z,80.71
2018-08-17T03:41:47.508Z,79.94
2018-08-17T03:42:47.432Z,79.65
2018-08-17T03:43:47.359Z,79.46
2018-08-17T03:44:47.271Z,78.78
2018-08-17T03:45:47.195Z,80.42
2018-08-17T03:46:47.121Z,78.78
2018-08-17T03:47:47.039Z,79.46
2018-08-17T03:48:46.962Z,79.17
2018-08-17T03:49:46.883Z,79.75
2018-08-17T03:50:46.796Z,80.61
2018-08-17T03:51:46.723Z,80.22
2018-08-17T03:52:46.635Z,80.90
2018-08-17T03:53:46.559Z,80.51
2018-08-17T03:54:46.484Z,81.96
2018-08-17T03:55:46.409Z,81.76
2018-08-17T03:56:46.323Z,81.19
2018-08-17T03:57:46.249Z,83.20
2018-08-17T03:58:46.172Z,82.30
2018-08-17T03:59:46.084Z,81.48
2018-08-17T04:00:46.009Z,81.48
2018-08-17T04:01:45.923Z,81.28
2018-08-17T04:02:45.848Z,82.15
2018-08-17T04:03:45.772Z,81.34
2018-08-17T04:04:45.685Z,82.59
2018-08-17T04:05:45.611Z,81.34
2018-08-17T04:06:45.535Z,81.82
2018-08-17T04:07:45.456Z,82.30
2018-08-17T04:08:45.373Z,81.53
2018-08-17T04:09:45.298Z,81.38
2018-08-17T04:10:45.211Z,80.80
2018-08-17T04:11:45.136Z,82.34
2018-08-17T04:12:45.061Z,82.30
2018-08-17T04:13:44.975Z,82.30
2018-08-17T04:14:44.900Z,81.38
2018-08-17T04:15:44.824Z,82.59
2018-08-17T04:16:44.736Z,81.67
2018-08-17T04:17:44.661Z,80.80
2018-08-17T04:18:44.589Z,80.80
2018-08-17T04:19:44.503Z,81.38
2018-08-17T04:20:44.425Z,81.19
2018-08-17T04:21:44.351Z,80.80
2018-08-17T04:22:44.262Z,81.48
2018-08-17T04:23:44.241Z,80.71
2018-08-17T04:24:44.112Z,80.90
2018-08-17T04:25:44.026Z,81.76
2018-08-17T04:26:43.952Z,80.65
2018-08-17T04:27:43.883Z,80.51
2018-08-17T04:28:43.788Z,79.40
2018-08-17T04:29:43.715Z,79.60
2018-08-17T04:30:43.651Z,79.50
2018-08-17T04:31:43.552Z,80.36
2018-08-17T04:32:43.482Z,79.40
2018-08-17T04:33:43.402Z,79.69
2018-08-17T04:34:43.313Z,79.30
2018-08-17T04:35:43.242Z,80.55
2018-08-17T04:36:43.163Z,80.36
2018-08-17T04:37:43.081Z,81.32
2018-08-17T04:38:43.003Z,80.65
2018-08-17T04:39:42.927Z,80.75
2018-08-17T04:40:42.839Z,80.65
2018-08-17T04:41:42.777Z,79.98
2018-08-17T04:42:42.690Z,81.23
2018-08-17T04:43:42.615Z,81.13
2018-08-17T04:44:42.528Z,80.75
2018-08-17T04:45:42.453Z,80.17
2018-08-17T04:46:42.379Z,80.36
2018-08-17T04:47:42.290Z,80.36
2018-08-17T04:48:42.214Z,80.84
2018-08-17T04:49:42.131Z,80.65
2018-08-17T04:50:42.055Z,79.50
2018-08-17T04:51:41.979Z,81.04
2018-08-17T04:52:41.891Z,80.55
2018-08-17T04:53:41.815Z,79.40
2018-08-17T04:54:41.741Z,79.11
2018-08-17T04:55:41.665Z,79.02
2018-08-17T04:56:41.578Z,79.88
2018-08-17T04:57:41.509Z,80.46
2018-08-17T04:58:41.429Z,79.69
2018-08-17T04:59:41.341Z,80.40
2018-08-17T05:00:41.267Z,79.69
2018-08-17T05:01:41.191Z,79.40
2018-08-17T05:02:41.106Z,79.02
2018-08-17T05:03:41.032Z,78.73
2018-08-17T05:04:40.955Z,78.38
2018-08-17T05:05:40.867Z,78.19
2018-08-17T05:06:40.791Z,78.38
2018-08-17T05:07:40.717Z,78.19
2018-08-17T05:08:40.630Z,78.86
2018-08-17T05:09:40.555Z,77.51
2018-08-17T05:10:40.480Z,77.81
2018-08-17T05:11:40.405Z,77.51
2018-08-17T05:12:40.317Z,77.42
2018-08-17T05:13:40.243Z,77.23
2018-08-17T05:14:40.168Z,77.13
2018-08-17T05:15:40.081Z,77.42
2018-08-17T05:16:40.006Z,78.58
2018-08-17T05:17:39.932Z,77.61
2018-08-17T05:18:39.846Z,77.13
2018-08-17T05:19:39.769Z,77.71
2018-08-17T05:20:39.695Z,77.81
2018-08-17T05:21:39.649Z,77.65
2018-08-17T05:22:39.532Z,77.08
2018-08-17T05:23:39.457Z,76.40
2018-08-17T05:24:39.382Z,77.46
2018-08-17T05:25:39.294Z,76.69
2018-08-17T05:26:39.219Z,76.69
2018-08-17T05:27:39.144Z,78.13
2018-08-17T05:28:39.061Z,77.65
2018-08-17T05:29:38.983Z,76.78
2018-08-17T05:30:38.908Z,77.17
2018-08-17T05:31:38.833Z,75.73
2018-08-17T05:32:38.768Z,75.92
2018-08-17T05:33:38.670Z,75.34
2018-08-17T05:34:38.595Z,76.01
2018-08-17T05:35:38.520Z,75.48
2018-08-17T05:36:38.435Z,75.96
2018-08-17T05:37:38.358Z,75.19
2018-08-17T05:38:38.284Z,75.09
2018-08-17T05:39:38.195Z,74.32
2018-08-17T05:40:38.120Z,74.13
2018-08-17T05:41:38.045Z,74.90
2018-08-17T05:42:37.959Z,75.09
2018-08-17T05:43:37.888Z,74.22
2018-08-17T05:44:37.821Z,75.09
2018-08-17T05:45:37.738Z,74.51
2018-08-17T05:46:37.647Z,73.84
2018-08-17T05:47:37.572Z,74.41
2018-08-17T05:48:37.509Z,74.90
2018-08-17T05:49:37.421Z,75.51
2018-08-17T05:50:37.338Z,74.32
2018-08-17T05:51:37.260Z,74.51
2018-08-17T05:52:37.188Z,74.16
2018-08-17T05:53:37.099Z,74.26
2018-08-17T05:54:37.023Z,73.97
2018-08-17T05:55:36.948Z,75.03
2018-08-17T05:56:36.894Z,75.42
2018-08-17T05:57:36.798Z,73.68
2018-08-17T05:58:36.714Z,73.88
2018-08-17T05:59:36.637Z,73.20
2018-08-17T06:00:36.561Z,72.53
2018-08-17T06:01:36.475Z,73.20
2018-08-17T06:02:36.398Z,72.08
2018-08-17T06:03:36.323Z,72.72
2018-08-17T06:04:36.251Z,72.75
2018-08-17T06:05:36.162Z,72.24
2018-08-17T06:06:36.088Z,72.27
2018-08-17T06:07:36.013Z,72.56
2018-08-17T06:08:35.937Z,73.05
2018-08-17T06:09:35.850Z,72.95
2018-08-17T06:10:35.774Z,72.27
2018-08-17T06:11:35.721Z,71.89
2018-08-17T06:12:35.624Z,71.79
2018-08-17T06:13:35.539Z,72.18
2018-08-17T06:14:35.463Z,71.89
2018-08-17T06:15:35.388Z,71.83
2018-08-17T06:16:35.313Z,72.37
2018-08-17T06:17:35.238Z,71.98
2018-08-17T06:18:35.151Z,70.73
2018-08-17T06:19:35.077Z,71.60
2018-08-17T06:20:35.000Z,70.35
2018-08-17T06:21:34.925Z,70.86
2018-08-17T06:22:34.838Z,70.54
2018-08-17T06:23:34.764Z,70.57
2018-08-17T06:24:34.690Z,70.09
2018-08-17T06:25:34.614Z,70.57
2018-08-17T06:26:34.528Z,70.42
2018-08-17T06:27:34.451Z,70.38
2018-08-17T06:28:34.379Z,70.80
2018-08-17T06:29:34.301Z,70.51
2018-08-17T06:30:34.225Z,70.32
2018-08-17T06:31:34.166Z,70.51
2018-08-17T06:32:34.064Z,70.90
2018-08-17T06:33:33.990Z,69.55
2018-08-17T06:34:33.914Z,69.07
2018-08-17T06:35:33.843Z,68.87
2018-08-17T06:36:33.753Z,68.71
2018-08-17T06:37:33.678Z,68.52
2018-08-17T06:38:33.631Z,69.20
2018-08-17T06:39:33.527Z,69.39
2018-08-17T06:40:33.452Z,69.00
2018-08-17T06:41:33.366Z,68.23
2018-08-17T06:42:33.290Z,68.13
2018-08-17T06:43:33.216Z,69.13
2018-08-17T06:44:33.140Z,67.85
2018-08-17T06:45:33.066Z,67.27
2018-08-17T06:46:32.978Z,67.59
2018-08-17T06:47:32.903Z,66.24
2018-08-17T06:48:32.829Z,66.53
2018-08-17T06:49:32.753Z,65.85
2018-08-17T06:50:32.731Z,65.08
2018-08-17T06:51:32.603Z,65.17
2018-08-17T06:52:32.517Z,64.53
2018-08-17T06:53:32.442Z,64.72
2018-08-17T06:54:32.366Z,64.82
2018-08-17T06:55:32.291Z,65.30
2018-08-17T06:56:32.218Z,65.30
2018-08-17T06:57:32.142Z,65.59
2018-08-17T06:58:32.066Z,64.63
2018-08-17T06:59:31.993Z,64.72
2018-08-17T07:00:31.904Z,64.76
2018-08-17T07:01:31.832Z,63.89
2018-08-17T07:02:31.795Z,65.34
2018-08-17T07:03:31.678Z,64.08
2018-08-17T07:04:31.610Z,62.63
2018-08-17T07:05:31.522Z,62.44
2018-08-17T07:06:31.447Z,63.21
2018-08-17T07:07:31.367Z,61.79
2018-08-17T07:08:31.295Z,61.69
2018-08-17T07:09:31.318Z,61.30
2018-08-17T07:10:31.143Z,61.11
2018-08-17T07:11:31.068Z,61.21
2018-08-17T07:12:30.981Z,60.82
2018-08-17T07:13:30.918Z,60.82
2018-08-17T07:14:30.830Z,60.92
2018-08-17T07:15:30.757Z,60.85
2018-08-17T07:16:30.740Z,60.95
2018-08-17T07:17:30.617Z,60.85
2018-08-17T07:18:30.530Z,61.53
2018-08-17T07:19:30.456Z,59.82
2018-08-17T07:20:30.380Z,61.18
2018-08-17T07:21:30.324Z,59.79
2018-08-17T07:22:30.230Z,59.79
2018-08-17T07:23:30.146Z,59.53
2018-08-17T07:24:30.074Z,59.33
2018-08-17T07:25:29.995Z,60.40
2018-08-17T07:26:29.919Z,60.50
2018-08-17T07:27:29.847Z,60.88
2018-08-17T07:28:29.770Z,60.11
2018-08-17T07:29:29.695Z,60.04
2018-08-17T07:30:29.620Z,59.84
2018-08-17T07:31:29.548Z,58.20
2018-08-17T07:32:29.470Z,57.53
2018-08-17T07:33:29.395Z,56.97
2018-08-17T07:34:29.321Z,57.07
2018-08-17T07:35:29.305Z,55.81
2018-08-17T07:36:29.170Z,55.74
2018-08-17T07:37:29.095Z,55.06
2018-08-17T07:38:29.022Z,54.90
2018-08-17T07:39:28.947Z,53.85
2018-08-17T07:40:28.871Z,53.10
2018-08-17T07:41:28.824Z,52.57
2018-08-17T07:42:28.721Z,51.82
2018-08-17T07:43:28.647Z,51.75
2018-08-17T07:44:28.572Z,49.73
2018-08-17T07:45:28.504Z,48.78
2018-08-17T07:46:28.422Z,47.90
2018-08-17T07:47:28.372Z,48.78
2018-08-17T07:48:28.284Z,48.07
2018-08-17T07:49:28.215Z,48.07
2018-08-17T07:50:28.145Z,48.19
2018-08-17T07:51:28.060Z,48.17
2018-08-17T07:52:27.997Z,47.83
2018-08-17T07:53:27.923Z,46.37
2018-08-17T07:54:27.848Z,47.07
2018-08-17T07:55:27.773Z,45.75
2018-08-17T07:56:27.710Z,45.85
2018-08-17T07:57:27.635Z,45.48
2018-08-17T07:58:27.573Z,44.78
2018-08-17T07:59:27.498Z,44.63
2018-08-17T08:00:27.424Z,43.96
2018-08-17T08:01:27.366Z,43.28
2018-08-17T08:02:27.286Z,43.08
2018-08-17T08:03:27.211Z,43.79
2018-08-17T08:04:27.149Z,42.25
2018-08-17T08:05:27.075Z,41.29
2018-08-17T08:06:27.012Z,41.49
2018-08-17T08:07:26.936Z,40.43
2018-08-17T08:08:26.864Z,40.90
2018-08-17T08:09:26.800Z,42.01
2018-08-17T08:10:26.738Z,42.40
2018-08-17T08:11:26.662Z,42.22
2018-08-17T08:12:26.600Z,42.11
2018-08-17T08:13:26.526Z,42.13
2018-08-17T08:14:26.462Z,41.72
2018-08-17T08:15:26.411Z,42.05
2018-08-17T08:16:26.326Z,42.11
2018-08-17T08:17:26.251Z,42.09
2018-08-17T08:18:26.189Z,42.30
2018-08-17T08:19:26.114Z,40.76
2018-08-17T08:20:26.138Z,41.54
2018-08-17T08:21:25.988Z,40.95
2018-08-17T08:22:25.913Z,40.90
2018-08-17T08:23:25.852Z,40.72
2018-08-17T08:24:25.779Z,40.03
2018-08-17T08:25:25.717Z,39.80
2018-08-17T08:26:25.651Z,40.66
2018-08-17T08:27:25.576Z,40.86
2018-08-17T08:28:25.528Z,41.25
2018-08-17T08:29:25.454Z,41.56
2018-08-17T08:30:25.379Z,41.07
2018-08-17T08:31:25.315Z,40.21
2018-08-17T08:32:25.255Z,39.84
2018-08-17T08:33:25.177Z,39.69
2018-08-17T08:34:25.127Z,39.11
2018-08-17T08:35:25.041Z,38.17
2018-08-17T08:36:24.978Z,37.01
2018-08-17T08:37:24.916Z,36.52
2018-08-17T08:38:24.842Z,37.94
2018-08-17T08:39:24.819Z,37.73
2018-08-17T08:40:24.716Z,39.11
2018-08-17T08:41:24.654Z,38.78
2018-08-17T08:42:24.579Z,39.86
2018-08-17T08:43:24.515Z,40.01
2018-08-17T08:44:24.458Z,42.15
2018-08-17T08:45:24.445Z,41.13
2018-08-17T08:46:24.329Z,39.27
2018-08-17T08:47:24.259Z,39.15
2018-08-17T08:48:24.193Z,40.66
2018-08-17T08:49:24.118Z,40.58
2018-08-17T08:50:24.055Z,40.92
2018-08-17T08:51:23.991Z,40.92
2018-08-17T08:52:23.941Z,40.03
2018-08-17T08:53:23.866Z,39.64
2018-08-17T08:54:23.795Z,39.33
2018-08-17T08:55:23.730Z,39.74
2018-08-17T08:56:23.669Z,39.47
2018-08-17T08:57:23.606Z,39.86
2018-08-17T08:58:23.530Z,38.92
2018-08-17T08:59:23.467Z,39.80
2018-08-17T09:00:23.406Z,39.03
2018-08-17T09:01:23.356Z,37.92
2018-08-17T09:02:23.267Z,38.60
2018-08-17T09:03:23.209Z,37.92
2018-08-17T09:04:23.144Z,38.88
2018-08-17T09:05:23.080Z,38.49
2018-08-17T09:06:23.018Z,38.12
2018-08-17T09:07:22.943Z,37.66
2018-08-17T09:08:22.929Z,36.47
2018-08-17T09:09:22.818Z,37.65
2018-08-17T09:10:22.757Z,38.55
2018-08-17T09:11:22.682Z,38.49
2018-08-17T09:12:22.618Z,38.51
2018-08-17T09:13:22.563Z,39.06
2018-08-17T09:14:22.507Z,39.54
2018-08-17T09:15:22.436Z,38.88
2018-08-17T09:16:22.357Z,38.13
2018-08-17T09:17:22.307Z,37.78
2018-08-17T09:18:22.239Z,36.93
2018-08-17T09:19:22.169Z,36.97
2018-08-17T09:20:22.147Z,34.53
2018-08-17T09:21:22.034Z,35.39
2018-08-17T09:22:21.969Z,35.20
2018-08-17T09:23:21.907Z,34.51
2018-08-17T09:24:21.844Z,35.91
2018-08-17T09:25:21.769Z,35.62
2018-08-17T09:26:21.709Z,36.49
2018-08-17T09:27:21.645Z,37.37
2018-08-17T09:28:21.587Z,37.92
2018-08-17T09:29:21.520Z,38.00
2018-08-17T09:30:21.446Z,38.13
2018-08-17T09:31:21.384Z,36.90
2018-08-17T09:32:21.320Z,37.35
2018-08-17T09:33:21.259Z,38.12
2018-08-17T09:34:21.209Z,37.73
2018-08-17T09:35:21.137Z,38.14
2018-08-17T09:36:21.059Z,39.23
2018-08-17T09:37:20.998Z,38.29
2018-08-17T09:38:20.934Z,37.31
2018-08-17T09:39:20.871Z,37.25
2018-08-17T09:40:20.810Z,38.43
2018-08-17T09:41:20.735Z,38.54
2018-08-17T09:42:20.671Z,39.01
2018-08-17T09:43:20.610Z,38.82
2018-08-17T09:44:20.546Z,38.78
2018-08-17T09:45:20.473Z,39.35
2018-08-17T09:46:20.410Z,39.04
2018-08-17T09:47:20.347Z,39.51
2018-08-17T09:48:20.285Z,39.80
2018-08-17T09:49:20.234Z,39.88
2018-08-17T09:50:20.151Z,40.56
2018-08-17T09:51:20.096Z,40.58
2018-08-17T09:52:20.023Z,39.82
2018-08-17T09:53:19.948Z,39.59
2018-08-17T09:54:19.886Z,40.48
2018-08-17T09:55:19.823Z,40.16
2018-08-17T09:56:19.749Z,40.95
2018-08-17T09:57:19.686Z,41.07
2018-08-17T09:58:19.625Z,39.67
2018-08-17T09:59:19.562Z,40.66
2018-08-17T10:00:19.487Z,40.63
2018-08-17T10:01:19.424Z,41.13
2018-08-17T10:02:19.353Z,41.42
2018-08-17T10:03:19.287Z,40.95
2018-08-17T10:04:19.227Z,40.76
2018-08-17T10:05:19.151Z,40.17
2018-08-17T10:06:19.087Z,40.97
2018-08-17T10:07:19.014Z,40.94
2018-08-17T10:08:18.949Z,41.13
2018-08-17T10:09:18.877Z,41.42
2018-08-17T10:10:18.814Z,41.13
2018-08-17T10:11:18.750Z,41.23
2018-08-17T10:12:18.676Z,41.33
2018-08-17T10:13:18.613Z,40.94
2018-08-17T10:14:18.539Z,41.42
2018-08-17T10:15:18.476Z,41.13
2018-08-17T10:16:18.416Z,42.01
2018-08-17T10:17:18.339Z,42.01
2018-08-17T10:18:18.276Z,41.52
2018-08-17T10:19:18.215Z,41.44
2018-08-17T10:20:18.126Z,41.13
2018-08-17T10:21:18.203Z,41.03
2018-08-17T10:22:17.994Z,41.03
2018-08-17T10:23:17.927Z,41.23
2018-08-17T10:24:17.853Z,41.33
2018-08-17T10:25:17.791Z,40.95
2018-08-17T10:26:17.727Z,40.95
2018-08-17T10:27:17.653Z,40.74
2018-08-17T10:28:17.579Z,42.21
2018-08-17T10:29:17.516Z,40.76
2018-08-17T10:30:17.441Z,41.15
2018-08-17T10:31:17.390Z,41.44
2018-08-17T10:32:17.316Z,41.25
2018-08-17T10:33:17.241Z,41.35
2018-08-17T10:34:17.178Z,40.94
2018-08-17T10:35:17.103Z,42.03
2018-08-17T10:36:17.028Z,41.96
2018-08-17T10:37:16.966Z,40.70
2018-08-17T10:38:16.892Z,41.00
2018-08-17T10:39:16.828Z,40.21
2018-08-17T10:40:16.767Z,39.43
2018-08-17T10:41:16.691Z,40.39
2018-08-17T10:42:16.617Z,39.72
2018-08-17T10:43:16.553Z,39.64
2018-08-17T10:44:16.479Z,39.35
2018-08-17T10:45:16.420Z,38.76
2018-08-17T10:46:16.354Z,39.64
2018-08-17T10:47:16.279Z,39.15
2018-08-17T10:48:16.223Z,39.53
2018-08-17T10:49:16.223Z,39.74
2018-08-17T10:50:16.079Z,39.86
2018-08-17T10:51:16.004Z,39.17
2018-08-17T10:52:15.943Z,38.31
2018-08-17T10:53:15.868Z,39.22
2018-08-17T10:54:15.805Z,37.65
2018-08-17T10:55:15.730Z,38.53
2018-08-17T10:56:15.673Z,38.20
2018-08-17T10:57:15.594Z,38.49
2018-08-17T10:58:15.531Z,37.92
2018-08-17T10:59:15.469Z,38.51
2018-08-17T11:00:15.394Z,38.41
2018-08-17T11:01:15.331Z,38.51
2018-08-17T11:02:15.259Z,39.00
2018-08-17T11:03:15.194Z,37.35
2018-08-17T11:04:57.255Z,37.52
2018-08-17T11:05:57.198Z,37.94
2018-08-17T11:06:57.118Z,36.90
2018-08-17T11:07:57.056Z,35.05
2018-08-17T11:08:56.994Z,34.85
2018-08-17T11:09:56.919Z,34.66
2018-08-17T11:10:56.914Z,34.67
2018-08-17T11:11:56.795Z,34.39
2018-08-17T11:12:56.720Z,33.25
2018-08-17T11:13:56.657Z,32.79
2018-08-17T11:14:56.595Z,32.00
2018-08-17T11:15:56.521Z,31.65
2018-08-17T11:16:56.462Z,31.93
2018-08-17T11:17:56.395Z,32.11
2018-08-17T11:18:56.333Z,31.73
2018-08-17T11:19:56.257Z,31.79
2018-08-17T11:20:56.195Z,32.18
2018-08-17T11:21:56.145Z,31.79
2018-08-17T11:22:56.100Z,30.65
2018-08-17T11:23:56.008Z,30.89
2018-08-17T11:24:55.945Z,29.39
2018-08-17T11:25:55.873Z,29.43
2018-08-17T11:26:55.808Z,29.46
2018-08-17T11:27:55.749Z,28.86
2018-08-17T11:28:55.683Z,28.85
2018-08-17T11:29:55.609Z,30.32
2018-08-17T11:30:55.546Z,30.60
2018-08-17T11:31:55.484Z,31.11
2018-08-17T11:32:55.423Z,32.03
2018-08-17T11:33:55.359Z,30.88
2018-08-17T11:34:55.297Z,30.30
2018-08-17T11:35:55.234Z,29.36
2018-08-17T11:36:55.173Z,30.32
2018-08-17T11:37:55.110Z,30.98
2018-08-17T11:38:55.037Z,30.65
2018-08-17T11:39:54.972Z,31.62
2018-08-17T11:40:54.911Z,32.21
2018-08-17T11:41:54.847Z,31.82
2018-08-17T11:42:54.785Z,32.23
2018-08-17T11:43:54.723Z,31.63
2018-08-17T11:44:54.660Z,32.49
2018-08-17T11:45:54.598Z,32.80
2018-08-17T11:46:54.535Z,33.80
2018-08-17T11:47:54.473Z,33.49
2018-08-17T11:48:54.410Z,32.04
2018-08-17T11:49:54.335Z,32.39
2018-08-17T11:50:54.276Z,32.04
2018-08-17T11:51:54.210Z,30.79
2018-08-17T11:52:54.150Z,31.02
2018-08-17T11:53:54.117Z,30.34
2018-08-17T11:54:54.024Z,29.09
2018-08-17T11:55:53.962Z,27.94
2018-08-17T11:56:53.901Z,27.53
2018-08-17T11:57:53.829Z,27.53
2018-08-17T11:58:53.763Z,27.12
2018-08-17T11:59:53.699Z,26.93
2018-08-17T12:00:53.637Z,26.25
2018-08-17T12:01:53.658Z,26.34
2018-08-17T12:02:53.514Z,26.55
2018-08-17T12:03:53.453Z,26.64
2018-08-17T12:04:53.387Z,26.84
2018-08-17T12:05:53.325Z,26.35
2018-08-17T12:06:53.263Z,27.14
2018-08-17T12:07:53.201Z,27.62
2018-08-17T12:08:53.138Z,26.85
2018-08-17T12:09:53.077Z,27.15
2018-08-17T12:10:53.013Z,26.38
2018-08-17T12:11:52.952Z,26.26
2018-08-17T12:12:52.888Z,28.08
2018-08-17T12:13:52.827Z,29.05
2018-08-17T12:14:52.763Z,28.47
2018-08-17T12:15:52.701Z,28.55
2018-08-17T12:16:52.652Z,29.21
2018-08-17T12:17:52.577Z,29.21
2018-08-17T12:18:52.601Z,30.17
2018-08-17T12:19:52.452Z,30.19
2018-08-17T12:20:52.389Z,30.30
2018-08-17T12:21:52.328Z,30.76
2018-08-17T12:22:52.264Z,31.44
2018-08-17T12:23:52.203Z,31.17
2018-08-17T12:24:52.170Z,29.99
2018-08-17T12:25:52.082Z,30.11
2018-08-17T12:26:52.015Z,30.76
2018-08-17T12:27:51.953Z,30.20
2018-08-17T12:28:51.903Z,30.09
2018-08-17T12:29:51.817Z,30.29
2018-08-17T12:30:51.754Z,30.98
2018-08-17T12:31:51.690Z,29.64
2018-08-17T12:32:51.629Z,28.76
2018-08-17T12:33:51.568Z,28.18
2018-08-17T12:34:51.503Z,29.14
2018-08-17T12:35:51.440Z,30.04
2018-08-17T12:36:51.379Z,29.46
2018-08-17T12:37:51.316Z,28.49
2018-08-17T12:38:51.254Z,27.72
2018-08-17T12:39:51.206Z,27.53
2018-08-17T12:40:51.136Z,27.91
2018-08-17T12:41:51.067Z,28.04
2018-08-17T12:42:51.004Z,27.84
2018-08-17T12:43:50.941Z,27.95
2018-08-17T12:44:50.883Z,26.95
2018-08-17T12:45:50.817Z,27.04
2018-08-17T12:46:50.754Z,26.15
2018-08-17T12:47:50.693Z,27.90
2018-08-17T12:48:50.631Z,27.51
2018-08-17T12:49:50.557Z,27.55
2018-08-17T12:50:50.497Z,27.43
2018-08-17T12:51:50.442Z,27.23